Time;durP1;ratioP1;P1;durP2;ratioP2;P2;SDS_P1;SDS_P2;PMS_P1;PMS_P2;Temp;Humidity;BMP_temperature;BMP_pressure;BME280_temperature;BME280_humidity;BME280_pressure;Samples;Min_cycle;Max_cycle;Signal;HPM_P1;HPM_P2
2024/02/28 00:00:07;;;;;;;;;;;;;;;;;;5089369;28;19933;-68
2024/02/28 00:02:34;;;;;;;;;;;;;;;;;;5082946;28;20465;-68
2024/02/28 00:05:01;;;;;;;;;;;;;;;;;;5089908;28;19932;-68
2024/02/28 00:07:30;;;;;;;;;;;;;;;;;;5087919;28;20014;-68
2024/02/28 00:09:57;;;;;;;;;;;;;;;;;;5088134;28;20025;-69
2024/02/28 00:12:25;;;;;;;;;;;;;;;;;;5091761;28;19935;-68
2024/02/28 00:14:52;;;;;;;;;;;;;;;;;;5082296;28;19928;-68
2024/02/28 00:17:19;;;;;;;;;;;;;;;;;;5091815;28;19934;-69
2024/02/28 00:19:46;;;;;;;;;;;;;;;;;;5092391;28;20019;-69
2024/02/28 00:22:13;;;;;;;;;;;;;;;;;;5090627;28;20002;-68
2024/02/28 00:24:40;;;;;;;;;;;;;;;;;;5092311;28;20019;-68
2024/02/28 00:27:07;;;;;;;;;;;;;;;;;;5091690;28;20044;-67
2024/02/28 00:29:34;;;;;;;;;;;;;;;;;;5091185;28;19971;-69
2024/02/28 00:32:02;;;;;;;;;;;;;;;;;;5089428;28;19953;-68
2024/02/28 00:34:29;;;;;;;;;;;;;;;;;;5091641;28;19928;-69
2024/02/28 00:36:56;;;;;;;;;;;;;;;;;;5092018;28;19928;-69
2024/02/28 00:39:23;;;;;;;;;;;;;;;;;;5091303;28;20390;-69
2024/02/28 00:41:50;;;;;;;;;;;;;;;;;;5093444;28;19928;-68
2024/02/28 00:44:17;;;;;;;;;;;;;;;;;;5092397;28;19928;-69
2024/02/28 00:46:44;;;;;;;;;;;;;;;;;;5091468;28;19931;-69
2024/02/28 00:49:11;;;;;;;;;;;;;;;;;;5090049;28;19928;-67
2024/02/28 00:51:38;;;;;;;;;;;;;;;;;;5090041;28;20066;-68
2024/02/28 00:54:05;;;;;;;;;;;;;;;;;;5090776;28;20361;-68
2024/02/28 00:56:33;;;;;;;;;;;;;;;;;;5087331;28;19993;-68
2024/02/28 00:59:00;;;;;;;;;;;;;;;;;;5090189;28;20023;-68
2024/02/28 01:01:27;;;;;;;;;;;;;;;;;;5087684;28;19936;-68
2024/02/28 01:03:54;;;;;;;;;;;;;;;;;;5089367;28;19927;-68
2024/02/28 01:06:21;;;;;;;;;;;;;;;;;;5090418;28;19928;-68
2024/02/28 01:08:48;;;;;;;;;;;;;;;;;;5089722;28;19967;-68
2024/02/28 01:11:15;;;;;;;;;;;;;;;;;;5084249;28;20276;-69
2024/02/28 01:13:42;;;;;;;;;;;;;;;;;;5090686;28;20675;-68
2024/02/28 01:16:09;;;;;;;;;;;;;;;;;;5089371;28;20042;-68
2024/02/28 01:18:36;;;;;;;;;;;;;;;;;;5090323;28;19971;-68
2024/02/28 01:21:03;;;;;;;;;;;;;;;;;;5089959;28;19981;-68
2024/02/28 01:23:31;;;;;;;;;;;;;;;;;;5088932;28;19939;-68
2024/02/28 01:25:58;;;;;;;;;;;;;;;;;;5090304;28;19935;-69
2024/02/28 01:28:25;;;;;;;;;;;;;;;;;;5090658;28;20042;-69
2024/02/28 01:30:52;;;;;;;;;;;;;;;;;;5090952;28;19928;-68
2024/02/28 01:33:19;;;;;;;;;;;;;;;;;;5086894;28;19928;-67
2024/02/28 01:35:46;;;;;;;;;;;;;;;;;;5090206;28;19963;-68
2024/02/28 01:38:13;;;;;;;;;;;;;;;;;;5089994;28;20706;-68
2024/02/28 01:40:44;;;;;;;;;;;;;;;;;;5090501;28;19975;-68
2024/02/28 01:43:11;;;;;;;;;;;;;;;;;;5090637;28;19940;-68
2024/02/28 01:45:38;;;;;;;;;;;;;;;;;;5089946;28;19928;-69
2024/02/28 01:48:05;;;;;;;;;;;;;;;;;;5090871;28;20096;-68
2024/02/28 01:50:32;;;;;;;;;;;;;;;;;;5087153;28;19989;-68
2024/02/28 01:52:59;;;;;;;;;;;;;;;;;;5089856;28;19970;-68
2024/02/28 01:55:26;;;;;;;;;;;;;;;;;;5089488;28;19974;-68
2024/02/28 01:57:53;;;;;;;;;;;;;;;;;;5088691;28;19977;-68
2024/02/28 02:00:20;;;;;;;;;;;;;;;;;;5089764;28;19954;-69
2024/02/28 02:02:47;;;;;;;;;;;;;;;;;;5089617;28;20019;-68
2024/02/28 02:05:16;;;;;;;;;;;;;;;;;;5078700;28;19936;-68
2024/02/28 02:07:43;;;;;;;;;;;;;;;;;;5084654;28;19967;-67
2024/02/28 02:10:12;;;;;;;;;;;;;;;;;;5089800;28;19932;-68
2024/02/28 02:12:39;;;;;;;;;;;;;;;;;;5085871;28;19928;-68
2024/02/28 02:15:06;;;;;;;;;;;;;;;;;;5089919;28;20392;-68
2024/02/28 02:17:33;;;;;;;;;;;;;;;;;;5087669;28;20046;-68
2024/02/28 02:20:00;;;;;;;;;;;;;;;;;;5089424;28;19928;-69
2024/02/28 02:22:27;;;;;;;;;;;;;;;;;;5089155;28;20029;-68
2024/02/28 02:24:54;;;;;;;;;;;;;;;;;;5089912;28;19935;-68
2024/02/28 02:27:21;;;;;;;;;;;;;;;;;;5088278;28;20390;-68
2024/02/28 02:29:48;;;;;;;;;;;;;;;;;;5086736;28;19932;-68
2024/02/28 02:32:15;;;;;;;;;;;;;;;;;;5088935;28;20018;-68
2024/02/28 02:34:42;;;;;;;;;;;;;;;;;;5089161;28;19940;-68
2024/02/28 02:37:09;;;;;;;;;;;;;;;;;;5088318;28;19981;-67
2024/02/28 02:39:36;;;;;;;;;;;;;;;;;;5088615;28;19928;-69
2024/02/28 02:42:03;;;;;;;;;;;;;;;;;;5088964;28;19924;-68
2024/02/28 02:44:30;;;;;;;;;;;;;;;;;;5087387;28;20022;-68
2024/02/28 02:46:57;;;;;;;;;;;;;;;;;;5089506;28;19972;-68
2024/02/28 02:49:24;;;;;;;;;;;;;;;;;;5089074;28;19932;-69
2024/02/28 02:51:51;;;;;;;;;;;;;;;;;;5088493;28;19928;-69
2024/02/28 02:54:18;;;;;;;;;;;;;;;;;;5088864;28;19927;-69
2024/02/28 02:56:46;;;;;;;;;;;;;;;;;;5088962;28;19932;-69
2024/02/28 02:59:13;;;;;;;;;;;;;;;;;;5087173;28;20401;-69
2024/02/28 03:01:40;;;;;;;;;;;;;;;;;;5089190;28;19928;-68
2024/02/28 03:04:07;;;;;;;;;;;;;;;;;;5087779;28;20386;-68
2024/02/28 03:06:34;;;;;;;;;;;;;;;;;;5088951;28;20455;-68
2024/02/28 03:09:01;;;;;;;;;;;;;;;;;;5088966;28;19965;-69
2024/02/28 03:11:28;;;;;;;;;;;;;;;;;;5089065;28;19935;-68
2024/02/28 03:13:55;;;;;;;;;;;;;;;;;;5092232;28;19955;-68
2024/02/28 03:16:22;;;;;;;;;;;;;;;;;;5093749;28;20411;-69
2024/02/28 03:18:49;;;;;;;;;;;;;;;;;;5091351;28;21381;-69
2024/02/28 03:21:16;;;;;;;;;;;;;;;;;;5091936;28;19979;-69
2024/02/28 03:23:43;;;;;;;;;;;;;;;;;;5091391;28;20062;-68
2024/02/28 03:26:11;;;;;;;;;;;;;;;;;;5092761;28;20028;-73
2024/02/28 03:28:38;;;;;;;;;;;;;;;;;;5092428;28;19928;-73
2024/02/28 03:31:05;;;;;;;;;;;;;;;;;;5090391;28;20403;-75
2024/02/28 03:33:33;;;;;;;;;;;;;;;;;;5092428;28;19928;-73
2024/02/28 03:36:00;;;;;;;;;;;;;;;;;;5091617;28;20023;-73
2024/02/28 03:38:27;;;;;;;;;;;;;;;;;;5092652;28;20014;-75
2024/02/28 03:40:54;;;;;;;;;;;;;;;;;;5092645;28;20406;-77
2024/02/28 03:43:22;;;;;;;;;;;;;;;;;;5092001;28;20023;-73
2024/02/28 03:45:49;;;;;;;;;;;;;;;;;;5089746;28;20382;-74
2024/02/28 03:48:17;;;;;;;;;;;;;;;;;;5090785;28;19967;-75
2024/02/28 03:50:44;;;;;;;;;;;;;;;;;;5091892;28;20402;-73
2024/02/28 03:53:11;;;;;;;;;;;;;;;;;;5090451;28;19981;-74
2024/02/28 03:55:38;;;;;;;;;;;;;;;;;;5092284;28;20378;-73
2024/02/28 03:58:08;;;;;;;;;;;;;;;;;;5092628;28;20001;-75
2024/02/28 04:00:35;;;;;;;;;;;;;;;;;;5092680;28;19932;-74
2024/02/28 04:03:02;;;;;;;;;;;;;;;;;;5092474;28;19928;-73
2024/02/28 04:05:30;;;;;;;;;;;;;;;;;;5092631;28;19928;-73
2024/02/28 04:07:57;;;;;;;;;;;;;;;;;;5089478;28;19977;-73
2024/02/28 04:10:24;;;;;;;;;;;;;;;;;;5090083;28;19932;-74
2024/02/28 04:12:51;;;;;;;;;;;;;;;;;;5093115;28;19935;-73
2024/02/28 04:15:18;;;;;;;;;;;;;;;;;;5091948;28;19971;-73
2024/02/28 04:17:45;;;;;;;;;;;;;;;;;;5092080;28;20331;-72
2024/02/28 04:20:21;;;;;;;;;;;;;;;;;;5091921;28;19971;-76
2024/02/28 04:22:48;;;;;;;;;;;;;;;;;;5091614;28;19928;-76
2024/02/28 04:25:16;;;;;;;;;;;;;;;;;;5091783;28;20378;-75
2024/02/28 04:27:43;;;;;;;;;;;;;;;;;;5091371;28;19932;-76
2024/02/28 04:30:11;;;;;;;;;;;;;;;;;;5087679;28;20398;-73
2024/02/28 04:32:38;;;;;;;;;;;;;;;;;;5091956;28;19936;-72
2024/02/28 04:35:06;;;;;;;;;;;;;;;;;;5092492;28;20402;-73
2024/02/28 04:37:34;;;;;;;;;;;;;;;;;;5092711;28;19981;-73
2024/02/28 04:40:01;;;;;;;;;;;;;;;;;;5094499;28;19928;-75
2024/02/28 04:42:28;;;;;;;;;;;;;;;;;;5092842;28;19927;-73
2024/02/28 04:44:55;;;;;;;;;;;;;;;;;;5091893;28;19932;-72
2024/02/28 04:47:23;;;;;;;;;;;;;;;;;;5087638;28;19975;-73
2024/02/28 04:49:50;;;;;;;;;;;;;;;;;;5091514;28;19927;-73
2024/02/28 04:52:17;;;;;;;;;;;;;;;;;;5091232;28;19932;-74
2024/02/28 04:54:45;;;;;;;;;;;;;;;;;;5091611;28;20010;-73
2024/02/28 04:57:12;;;;;;;;;;;;;;;;;;5090619;28;20433;-71
2024/02/28 04:59:39;;;;;;;;;;;;;;;;;;5091359;28;19943;-73
2024/02/28 05:02:06;;;;;;;;;;;;;;;;;;5091275;28;19982;-73
2024/02/28 05:04:33;;;;;;;;;;;;;;;;;;5087924;28;19951;-74
2024/02/28 05:07:00;;;;;;;;;;;;;;;;;;5091216;28;19996;-74
2024/02/28 05:09:27;;;;;;;;;;;;;;;;;;5090686;28;20025;-74
2024/02/28 05:11:54;;;;;;;;;;;;;;;;;;5098491;28;19928;-72
2024/02/28 05:14:21;;;;;;;;;;;;;;;;;;5091345;28;20448;-73
2024/02/28 05:16:48;;;;;;;;;;;;;;;;;;5089904;28;20352;-74
2024/02/28 05:19:17;;;;;;;;;;;;;;;;;;5088100;28;19932;-72
2024/02/28 05:21:44;;;;;;;;;;;;;;;;;;5084139;28;19928;-72
2024/02/28 05:24:11;;;;;;;;;;;;;;;;;;5090888;28;20391;-74
2024/02/28 05:26:38;;;;;;;;;;;;;;;;;;5090877;28;20009;-74
2024/02/28 05:29:05;;;;;;;;;;;;;;;;;;5091162;28;19928;-72
2024/02/28 05:31:33;;;;;;;;;;;;;;;;;;5090740;28;19928;-72
2024/02/28 05:34:00;;;;;;;;;;;;;;;;;;5090651;28;19990;-74
2024/02/28 05:36:27;;;;;;;;;;;;;;;;;;5088461;28;19932;-74
2024/02/28 05:38:54;;;;;;;;;;;;;;;;;;5090839;28;20543;-73
2024/02/28 05:41:21;;;;;;;;;;;;;;;;;;5076194;28;19928;-74
2024/02/28 05:43:49;;;;;;;;;;;;;;;;;;5090115;28;20006;-74
2024/02/28 05:46:16;;;;;;;;;;;;;;;;;;5090929;28;20029;-75
2024/02/28 05:48:43;;;;;;;;;;;;;;;;;;5089791;28;19928;-74
2024/02/28 05:51:10;;;;;;;;;;;;;;;;;;5088693;28;19927;-73
2024/02/28 05:53:38;;;;;;;;;;;;;;;;;;5088749;28;19928;-74
2024/02/28 05:56:05;;;;;;;;;;;;;;;;;;5088874;28;19932;-76
2024/02/28 05:58:32;;;;;;;;;;;;;;;;;;5088918;28;19928;-74
2024/02/28 06:00:59;;;;;;;;;;;;;;;;;;5083753;28;19928;-73
2024/02/28 06:03:26;;;;;;;;;;;;;;;;;;5089297;28;20029;-74
2024/02/28 06:05:54;;;;;;;;;;;;;;;;;;5086646;28;19970;-72
2024/02/28 06:08:21;;;;;;;;;;;;;;;;;;5086637;28;19927;-72
2024/02/28 06:10:48;;;;;;;;;;;;;;;;;;5090203;28;19928;-72
2024/02/28 06:13:15;;;;;;;;;;;;;;;;;;5090070;28;20479;-74
2024/02/28 06:15:42;;;;;;;;;;;;;;;;;;5089328;28;20383;-74
2024/02/28 06:18:09;;;;;;;;;;;;;;;;;;5085948;28;20413;-73
2024/02/28 06:20:37;;;;;;;;;;;;;;;;;;5084330;28;19928;-74
2024/02/28 06:23:04;;;;;;;;;;;;;;;;;;5088788;28;19974;-75
2024/02/28 06:25:33;;;;;;;;;;;;;;;;;;5079786;28;19928;-71
2024/02/28 06:28:01;;;;;;;;;;;;;;;;;;5090030;28;20030;-74
2024/02/28 06:30:28;;;;;;;;;;;;;;;;;;5087122;28;19928;-72
2024/02/28 06:32:56;;;;;;;;;;;;;;;;;;5084514;28;20035;-72
2024/02/28 06:35:23;;;;;;;;;;;;;;;;;;5087571;28;20391;-72
2024/02/28 06:37:51;;;;;;;;;;;;;;;;;;5082200;28;19929;-69
2024/02/28 06:40:18;;;;;;;;;;;;;;;;;;5083927;28;19969;-71
2024/02/28 06:42:45;;;;;;;;;;;;;;;;;;5088707;28;19932;-72
2024/02/28 06:45:12;;;;;;;;;;;;;;;;;;5082971;28;19932;-71
2024/02/28 06:47:39;;;;;;;;;;;;;;;;;;5089124;28;20705;-72
2024/02/28 06:50:07;;;;;;;;;;;;;;;;;;5085876;28;20414;-72
2024/02/28 06:52:34;;;;;;;;;;;;;;;;;;5087317;28;19938;-72
2024/02/28 06:55:03;;;;;;;;;;;;;;;;;;5088565;28;20012;-72
2024/02/28 06:57:30;;;;;;;;;;;;;;;;;;5085896;28;19972;-73
2024/02/28 06:59:57;;;;;;;;;;;;;;;;;;5086994;28;20385;-71
2024/02/28 07:02:24;;;;;;;;;;;;;;;;;;5081695;28;19928;-71
2024/02/28 07:04:51;;;;;;;;;;;;;;;;;;5082968;28;19966;-71
2024/02/28 07:07:18;;;;;;;;;;;;;;;;;;5075615;28;20058;-73
2024/02/28 07:09:48;;;;;;;;;;;;;;;;;;5079918;28;20027;-72
2024/02/28 07:12:15;;;;;;;;;;;;;;;;;;5088404;28;19950;-70
2024/02/28 07:14:42;;;;;;;;;;;;;;;;;;5086277;28;20009;-75
2024/02/28 07:17:10;;;;;;;;;;;;;;;;;;5087815;28;20313;-71
2024/02/28 07:19:37;;;;;;;;;;;;;;;;;;5089440;28;19928;-72
2024/02/28 07:22:05;;;;;;;;;;;;;;;;;;5087123;28;20014;-71
2024/02/28 07:24:32;;;;;;;;;;;;;;;;;;5087214;28;19924;-69
2024/02/28 07:26:59;;;;;;;;;;;;;;;;;;5079952;28;20337;-73
2024/02/28 07:29:26;;;;;;;;;;;;;;;;;;5087843;28;19936;-72
2024/02/28 07:31:53;;;;;;;;;;;;;;;;;;5083319;28;20014;-73
2024/02/28 07:34:20;;;;;;;;;;;;;;;;;;5077571;28;20019;-70
2024/02/28 07:36:47;;;;;;;;;;;;;;;;;;5088132;28;20372;-71
2024/02/28 07:39:14;;;;;;;;;;;;;;;;;;5088071;28;20025;-72
2024/02/28 07:41:41;;;;;;;;;;;;;;;;;;5086725;28;20450;-70
2024/02/28 07:44:08;;;;;;;;;;;;;;;;;;5086154;28;20309;-71
2024/02/28 07:46:36;;;;;;;;;;;;;;;;;;5078188;28;20006;-71
2024/02/28 07:49:03;;;;;;;;;;;;;;;;;;5086863;28;20798;-62
2024/02/28 07:51:30;;;;;;;;;;;;;;;;;;5081470;28;19928;-73
2024/02/28 07:53:57;;;;;;;;;;;;;;;;;;5084215;28;20018;-71
2024/02/28 07:56:24;;;;;;;;;;;;;;;;;;5085368;28;19928;-72
2024/02/28 07:58:51;;;;;;;;;;;;;;;;;;5084923;28;20018;-72
2024/02/28 08:01:18;;;;;;;;;;;;;;;;;;5082554;28;19928;-72
2024/02/28 08:03:45;;;;;;;;;;;;;;;;;;5088157;28;19945;-71
2024/02/28 08:06:12;;;;;;;;;;;;;;;;;;5084217;28;19980;-69
2024/02/28 08:08:40;;;;;;;;;;;;;;;;;;5089091;28;19928;-68
2024/02/28 08:11:07;;;;;;;;;;;;;;;;;;5086654;28;19936;-69
2024/02/28 08:13:34;;;;;;;;;;;;;;;;;;5089815;28;20011;-70
2024/02/28 08:16:01;;;;;;;;;;;;;;;;;;5086195;28;19947;-69
2024/02/28 08:18:28;;;;;;;;;;;;;;;;;;5090257;28;19983;-71
2024/02/28 08:20:57;;;;;;;;;;;;;;;;;;5087891;28;20009;-72
2024/02/28 08:23:26;;;;;;;;;;;;;;;;;;5085180;28;20027;-73
2024/02/28 08:25:53;;;;;;;;;;;;;;;;;;5090086;28;20489;-72
2024/02/28 08:28:20;;;;;;;;;;;;;;;;;;5089206;28;19928;-71
2024/02/28 08:30:47;;;;;;;;;;;;;;;;;;5084494;28;19943;-73
2024/02/28 08:33:14;;;;;;;;;;;;;;;;;;5089567;28;19931;-73
2024/02/28 08:35:42;;;;;;;;;;;;;;;;;;5087805;28;20051;-73
2024/02/28 08:38:09;;;;;;;;;;;;;;;;;;5091388;28;20493;-72
2024/02/28 08:40:36;;;;;;;;;;;;;;;;;;5089893;28;19939;-73
2024/02/28 08:43:03;;;;;;;;;;;;;;;;;;5089219;28;20260;-72
2024/02/28 08:45:30;;;;;;;;;;;;;;;;;;5089228;28;20006;-72
2024/02/28 08:48:01;;;;;;;;;;;;;;;;;;5091388;28;19943;-72
2024/02/28 08:50:28;;;;;;;;;;;;;;;;;;5090991;28;19928;-71
2024/02/28 08:52:55;;;;;;;;;;;;;;;;;;5085562;28;20387;-72
2024/02/28 08:55:22;;;;;;;;;;;;;;;;;;5089002;28;20010;-73
2024/02/28 08:57:49;;;;;;;;;;;;;;;;;;5085501;28;20466;-71
2024/02/28 09:00:17;;;;;;;;;;;;;;;;;;5088874;28;19928;-72
2024/02/28 09:02:44;;;;;;;;;;;;;;;;;;5089621;28;19927;-72
2024/02/28 09:05:11;;;;;;;;;;;;;;;;;;5089654;28;20018;-72
2024/02/28 09:07:38;;;;;;;;;;;;;;;;;;5090121;28;19928;-71
2024/02/28 09:10:06;;;;;;;;;;;;;;;;;;5083555;28;20893;-72
2024/02/28 09:12:33;;;;;;;;;;;;;;;;;;5089880;28;20402;-73
2024/02/28 09:15:00;;;;;;;;;;;;;;;;;;5087618;28;19928;-74
2024/02/28 09:17:27;;;;;;;;;;;;;;;;;;5090343;28;19985;-71
2024/02/28 09:19:54;;;;;;;;;;;;;;;;;;5090063;28;20387;-72
2024/02/28 09:22:21;;;;;;;;;;;;;;;;;;5089932;28;20496;-74
2024/02/28 09:24:48;;;;;;;;;;;;;;;;;;5088759;28;19928;-72
2024/02/28 09:27:15;;;;;;;;;;;;;;;;;;5087889;28;19924;-75
2024/02/28 09:29:42;;;;;;;;;;;;;;;;;;5089783;28;20089;-72
2024/02/28 09:32:09;;;;;;;;;;;;;;;;;;5091609;28;19974;-72
2024/02/28 09:34:37;;;;;;;;;;;;;;;;;;5089268;28;19928;-72
2024/02/28 09:37:04;;;;;;;;;;;;;;;;;;5079062;28;19943;-72
2024/02/28 09:39:30;;;;;;;;;;;;;;;;;;5086406;28;20364;-73
2024/02/28 09:41:56;;;;;;;;;;;;;;;;;;5088155;28;20046;-72
2024/02/28 09:44:23;;;;;;;;;;;;;;;;;;5088006;28;19928;-75
2024/02/28 09:46:51;;;;;;;;;;;;;;;;;;5088750;28;19931;-73
2024/02/28 09:49:18;;;;;;;;;;;;;;;;;;5081730;28;19974;-73
2024/02/28 09:51:49;;;;;;;;;;;;;;;;;;5083407;28;20026;-73
2024/02/28 09:54:16;;;;;;;;;;;;;;;;;;5087272;28;20401;-73
2024/02/28 09:56:43;;;;;;;;;;;;;;;;;;5087262;28;19960;-73
2024/02/28 09:59:10;;;;;;;;;;;;;;;;;;5087200;28;19928;-72
2024/02/28 10:01:37;;;;;;;;;;;;;;;;;;5088772;28;19936;-71
2024/02/28 10:04:04;;;;;;;;;;;;;;;;;;5090412;28;19928;-72
2024/02/28 10:06:31;;;;;;;;;;;;;;;;;;5093881;28;19927;-73
2024/02/28 10:08:58;;;;;;;;;;;;;;;;;;5092821;28;19936;-72
2024/02/28 10:11:26;;;;;;;;;;;;;;;;;;5091138;28;20014;-72
2024/02/28 10:13:54;;;;;;;;;;;;;;;;;;5089588;28;20379;-73
2024/02/28 10:16:22;;;;;;;;;;;;;;;;;;5081754;28;19935;-74
2024/02/28 10:18:49;;;;;;;;;;;;;;;;;;5083537;28;19981;-78
2024/02/28 10:21:16;;;;;;;;;;;;;;;;;;5095334;28;19933;-75
2024/02/28 10:23:43;;;;;;;;;;;;;;;;;;5093897;28;20011;-75
2024/02/28 10:26:10;;;;;;;;;;;;;;;;;;5085752;28;20306;-77
2024/02/28 10:28:37;;;;;;;;;;;;;;;;;;5089464;28;19934;-75
2024/02/28 10:31:04;;;;;;;;;;;;;;;;;;5089256;28;20007;-75
2024/02/28 10:33:33;;;;;;;;;;;;;;;;;;5090356;28;20619;-75
2024/02/28 10:36:00;;;;;;;;;;;;;;;;;;5091568;28;19943;-76
2024/02/28 10:38:27;;;;;;;;;;;;;;;;;;5093943;28;19924;-77
2024/02/28 10:40:54;;;;;;;;;;;;;;;;;;5088924;28;20461;-77
2024/02/28 10:43:21;;;;;;;;;;;;;;;;;;5093958;28;19928;-75
2024/02/28 10:45:48;;;;;;;;;;;;;;;;;;5098137;28;19932;-75
2024/02/28 10:48:15;;;;;;;;;;;;;;;;;;5091498;28;20486;-76
2024/02/28 10:50:42;;;;;;;;;;;;;;;;;;5098079;28;20020;-77
2024/02/28 10:53:10;;;;;;;;;;;;;;;;;;5090439;28;19951;-76
2024/02/28 10:55:37;;;;;;;;;;;;;;;;;;5089150;28;19962;-76
2024/02/28 10:58:04;;;;;;;;;;;;;;;;;;5087069;28;20008;-77
2024/02/28 11:00:31;;;;;;;;;;;;;;;;;;5075773;28;19928;-75
2024/02/28 11:02:59;;;;;;;;;;;;;;;;;;5076610;28;20650;-75
2024/02/28 11:05:28;;;;;;;;;;;;;;;;;;5079348;28;20733;-81
2024/02/28 11:07:56;;;;;;;;;;;;;;;;;;5092292;28;19932;-82
2024/02/28 11:10:23;;;;;;;;;;;;;;;;;;5082990;28;20019;-82
2024/02/28 11:12:50;;;;;;;;;;;;;;;;;;5091767;28;19978;-87
2024/02/28 11:15:17;;;;;;;;;;;;;;;;;;5094353;28;20015;-83
2024/02/28 11:17:48;;;;;;;;;;;;;;;;;;5089533;28;20015;-79
2024/02/28 11:20:15;;;;;;;;;;;;;;;;;;5086670;28;19928;-82
2024/02/28 11:22:42;;;;;;;;;;;;;;;;;;5078047;28;19935;-79
2024/02/28 11:25:09;;;;;;;;;;;;;;;;;;5082851;28;20026;-78
2024/02/28 11:27:36;;;;;;;;;;;;;;;;;;5079968;28;19927;-76
2024/02/28 11:30:04;;;;;;;;;;;;;;;;;;5079873;28;19968;-82
2024/02/28 11:32:32;;;;;;;;;;;;;;;;;;5083695;28;19927;-79
2024/02/28 11:34:59;;;;;;;;;;;;;;;;;;5084388;28;20304;-77
2024/02/28 11:37:26;;;;;;;;;;;;;;;;;;5089290;28;20024;-80
2024/02/28 11:39:53;;;;;;;;;;;;;;;;;;5089650;28;19928;-77
2024/02/28 11:42:20;;;;;;;;;;;;;;;;;;5090117;28;19932;-76
2024/02/28 11:44:47;;;;;;;;;;;;;;;;;;5082237;28;20427;-78
2024/02/28 11:47:14;;;;;;;;;;;;;;;;;;5084435;28;20018;-79
2024/02/28 11:49:41;;;;;;;;;;;;;;;;;;5090723;28;20034;-75
2024/02/28 11:52:10;;;;;;;;;;;;;;;;;;5087360;28;20084;-73
2024/02/28 11:54:37;;;;;;;;;;;;;;;;;;5074348;28;20008;-73
2024/02/28 11:57:04;;;;;;;;;;;;;;;;;;5083240;28;20306;-75
2024/02/28 11:59:31;;;;;;;;;;;;;;;;;;5091095;28;20019;-73
2024/02/28 12:01:58;;;;;;;;;;;;;;;;;;5079595;28;20415;-73
2024/02/28 12:04:26;;;;;;;;;;;;;;;;;;5075441;28;19934;-74
2024/02/28 12:06:53;;;;;;;;;;;;;;;;;;5086193;28;19923;-73
2024/02/28 12:09:20;;;;;;;;;;;;;;;;;;5089260;28;19975;-71
2024/02/28 12:11:47;;;;;;;;;;;;;;;;;;5091014;28;20018;-74
2024/02/28 12:14:14;;;;;;;;;;;;;;;;;;5083793;28;19965;-77
2024/02/28 12:16:41;;;;;;;;;;;;;;;;;;5085411;28;20023;-74
2024/02/28 12:19:08;;;;;;;;;;;;;;;;;;5084704;28;19935;-74
2024/02/28 12:21:35;;;;;;;;;;;;;;;;;;5087253;28;20002;-73
2024/02/28 12:24:02;;;;;;;;;;;;;;;;;;5084727;28;19933;-74
2024/02/28 12:26:29;;;;;;;;;;;;;;;;;;5081100;28;20747;-75
2024/02/28 12:28:56;;;;;;;;;;;;;;;;;;5083446;28;20002;-76
2024/02/28 12:31:23;;;;;;;;;;;;;;;;;;5081833;28;20007;-74
2024/02/28 12:33:50;;;;;;;;;;;;;;;;;;5075447;28;20015;-78
2024/02/28 12:36:17;;;;;;;;;;;;;;;;;;5088806;28;19928;-75
2024/02/28 12:38:44;;;;;;;;;;;;;;;;;;5084434;28;20027;-74
2024/02/28 12:41:11;;;;;;;;;;;;;;;;;;5081394;28;20654;-79
2024/02/28 12:43:39;;;;;;;;;;;;;;;;;;5074277;28;20016;-74
2024/02/28 12:46:06;;;;;;;;;;;;;;;;;;5079962;28;19978;-73
2024/02/28 12:48:33;;;;;;;;;;;;;;;;;;5084726;28;19935;-73
2024/02/28 12:51:00;;;;;;;;;;;;;;;;;;5083158;28;20371;-73
2024/02/28 12:53:27;;;;;;;;;;;;;;;;;;5088253;28;20043;-72
2024/02/28 12:55:54;;;;;;;;;;;;;;;;;;5081962;28;20023;-74
2024/02/28 12:58:23;;;;;;;;;;;;;;;;;;5080803;28;20551;-75
2024/02/28 13:00:50;;;;;;;;;;;;;;;;;;5095100;28;19939;-73
2024/02/28 13:03:17;;;;;;;;;;;;;;;;;;5090033;28;20303;-74
2024/02/28 13:05:44;;;;;;;;;;;;;;;;;;5087367;28;20023;-74
2024/02/28 13:08:11;;;;;;;;;;;;;;;;;;5084508;28;19943;-73
2024/02/28 13:10:41;;;;;;;;;;;;;;;;;;5096782;28;19932;-74
2024/02/28 13:13:08;;;;;;;;;;;;;;;;;;5097605;28;19935;-75
2024/02/28 13:15:35;;;;;;;;;;;;;;;;;;5087430;28;20063;-75
2024/02/28 13:18:07;;;;;;;;;;;;;;;;;;5097833;28;19923;-67
2024/02/28 13:20:34;;;;;;;;;;;;;;;;;;5084745;28;19969;-73
2024/02/28 13:23:01;;;;;;;;;;;;;;;;;;5096981;28;19928;-76
2024/02/28 13:25:28;;;;;;;;;;;;;;;;;;5096436;28;20767;-76
2024/02/28 13:27:55;;;;;;;;;;;;;;;;;;5094819;28;20023;-75
2024/02/28 13:30:22;;;;;;;;;;;;;;;;;;5094161;28;19928;-75
2024/02/28 13:32:49;;;;;;;;;;;;;;;;;;5092448;28;20003;-77
2024/02/28 13:35:16;;;;;;;;;;;;;;;;;;5151064;22;20436;-74
2024/02/28 13:37:43;;;;;;;;;;;;;;;;;;5093902;28;19954;-75
2024/02/28 13:40:11;;;;;;;;;;;;;;;;;;5092463;28;20314;-74
2024/02/28 13:42:38;;;;;;;;;;;;;;;;;;5095169;28;20338;-76
2024/02/28 13:45:07;;;;;;;;;;;;;;;;;;5095031;28;20318;-74
2024/02/28 13:47:34;;;;;;;;;;;;;;;;;;5094053;28;19928;-75
2024/02/28 13:50:01;;;;;;;;;;;;;;;;;;5094655;28;19934;-77
2024/02/28 13:52:28;;;;;;;;;;;;;;;;;;5099073;28;19974;-78
2024/02/28 13:54:55;;;;;;;;;;;;;;;;;;5097171;28;20019;-77
2024/02/28 13:57:22;;;;;;;;;;;;;;;;;;5080825;28;19927;-78
2024/02/28 13:59:51;;;;;;;;;;;;;;;;;;5079580;28;20301;-77
2024/02/28 14:02:18;;;;;;;;;;;;;;;;;;5081515;28;20560;-80
2024/02/28 14:04:48;;;;;;;;;;;;;;;;;;5083629;28;19927;-79
2024/02/28 14:07:16;;;;;;;;;;;;;;;;;;5084084;28;19929;-74
2024/02/28 14:09:43;;;;;;;;;;;;;;;;;;5096622;28;19928;-74
2024/02/28 14:12:10;;;;;;;;;;;;;;;;;;5101824;22;19928;-75
2024/02/28 14:14:39;;;;;;;;;;;;;;;;;;5105207;28;20014;-76
2024/02/28 14:17:06;;;;;;;;;;;;;;;;;;5106395;28;19934;-75
2024/02/28 14:19:35;;;;;;;;;;;;;;;;;;5099477;28;19950;-82
2024/02/28 14:22:02;;;;;;;;;;;;;;;;;;5100578;28;19928;-73
2024/02/28 14:24:29;;;;;;;;;;;;;;;;;;5097717;28;19932;-75
2024/02/28 14:26:56;;;;;;;;;;;;;;;;;;5099616;28;19963;-75
2024/02/28 14:29:23;;;;;;;;;;;;;;;;;;5095414;28;20030;-75
2024/02/28 14:31:50;;;;;;;;;;;;;;;;;;5103618;28;20313;-75
2024/02/28 14:34:17;;;;;;;;;;;;;;;;;;5102678;28;19972;-82
2024/02/28 14:36:44;;;;;;;;;;;;;;;;;;5107118;28;20047;-75
2024/02/28 14:39:15;;;;;;;;;;;;;;;;;;5103353;28;20436;-73
2024/02/28 14:41:42;;;;;;;;;;;;;;;;;;5106258;28;19931;-75
2024/02/28 14:44:09;;;;;;;;;;;;;;;;;;5103582;28;19963;-75
2024/02/28 14:46:36;;;;;;;;;;;;;;;;;;5106771;28;19928;-74
2024/02/28 14:49:02;;;;;;;;;;;;;;;;;;5098678;28;20413;-74
2024/02/28 14:51:30;;;;;;;;;;;;;;;;;;5101949;28;20030;-75
2024/02/28 14:53:57;;;;;;;;;;;;;;;;;;5107724;28;19927;-75
2024/02/28 14:56:24;;;;;;;;;;;;;;;;;;5109768;28;19971;-74
2024/02/28 14:58:51;;;;;;;;;;;;;;;;;;5104941;28;20019;-74
2024/02/28 15:01:18;;;;;;;;;;;;;;;;;;5104390;28;19927;-74
2024/02/28 15:03:45;;;;;;;;;;;;;;;;;;5104391;28;20050;-74
2024/02/28 15:06:12;;;;;;;;;;;;;;;;;;5099101;28;19928;-74
2024/02/28 15:08:39;;;;;;;;;;;;;;;;;;5100539;28;19938;-74
2024/02/28 15:11:06;;;;;;;;;;;;;;;;;;5101116;28;20376;-74
2024/02/28 15:13:34;;;;;;;;;;;;;;;;;;5100342;28;20018;-73
2024/02/28 15:16:01;;;;;;;;;;;;;;;;;;5095300;28;20445;-73
2024/02/28 15:18:28;;;;;;;;;;;;;;;;;;5098522;28;19955;-74
2024/02/28 15:20:56;;;;;;;;;;;;;;;;;;5106092;28;20738;-77
2024/02/28 15:23:23;;;;;;;;;;;;;;;;;;5097517;28;20243;-76
2024/02/28 15:25:54;;;;;;;;;;;;;;;;;;5101211;28;19979;-76
2024/02/28 15:28:21;;;;;;;;;;;;;;;;;;5103163;28;19966;-77
2024/02/28 15:30:48;;;;;;;;;;;;;;;;;;5094236;28;19947;-77
2024/02/28 15:33:15;;;;;;;;;;;;;;;;;;5105933;28;20342;-74
2024/02/28 15:35:42;;;;;;;;;;;;;;;;;;5108713;28;20035;-75
2024/02/28 15:38:09;;;;;;;;;;;;;;;;;;5109301;28;20195;-76
2024/02/28 15:40:36;;;;;;;;;;;;;;;;;;5106391;28;20050;-78
2024/02/28 15:43:03;;;;;;;;;;;;;;;;;;5102188;28;19951;-78
2024/02/28 15:45:30;;;;;;;;;;;;;;;;;;5107474;28;19927;-80
2024/02/28 15:47:58;;;;;;;;;;;;;;;;;;5106224;28;19981;-78
2024/02/28 15:50:25;;;;;;;;;;;;;;;;;;5106040;28;20026;-78
2024/02/28 15:52:53;;;;;;;;;;;;;;;;;;5103462;28;20311;-80
2024/02/28 15:55:21;;;;;;;;;;;;;;;;;;5107344;28;19935;-81
2024/02/28 15:57:48;;;;;;;;;;;;;;;;;;5100653;28;19943;-73
2024/02/28 16:00:15;;;;;;;;;;;;;;;;;;5105403;28;19959;-81
2024/02/28 16:02:42;;;;;;;;;;;;;;;;;;5102525;28;19950;-76
2024/02/28 16:05:09;;;;;;;;;;;;;;;;;;5100790;28;19928;-77
2024/02/28 16:07:36;;;;;;;;;;;;;;;;;;5102149;28;19934;-76
2024/02/28 16:10:03;;;;;;;;;;;;;;;;;;5105351;28;19975;-77
2024/02/28 16:12:30;;;;;;;;;;;;;;;;;;5105794;28;20023;-80
2024/02/28 16:14:57;;;;;;;;;;;;;;;;;;5106408;28;19923;-74
2024/02/28 16:17:25;;;;;;;;;;;;;;;;;;5096976;28;20392;-81
2024/02/28 16:19:52;;;;;;;;;;;;;;;;;;5098206;28;20306;-83
2024/02/28 16:22:20;;;;;;;;;;;;;;;;;;5112818;28;19923;-81
2024/02/28 16:24:47;;;;;;;;;;;;;;;;;;5108709;28;20004;-81
2024/02/28 16:27:15;;;;;;;;;;;;;;;;;;5105122;28;20014;-80
2024/02/28 16:29:42;;;;;;;;;;;;;;;;;;5097118;28;19928;-82
2024/02/28 16:32:09;;;;;;;;;;;;;;;;;;5105778;28;19931;-81
2024/02/28 16:34:36;;;;;;;;;;;;;;;;;;5111752;28;19994;-83
2024/02/28 16:37:03;;;;;;;;;;;;;;;;;;5105419;28;19990;-79
2024/02/28 16:39:32;;;;;;;;;;;;;;;;;;5106871;28;19986;-74
2024/02/28 16:41:59;;;;;;;;;;;;;;;;;;5111731;28;19976;-78
2024/02/28 16:44:26;;;;;;;;;;;;;;;;;;5100497;28;19950;-79